York, Indiana
Current Conditions -  °F | °C
As of 9:55 AM on Friday 28 Nov 2014 (Local Time) from KANQ Reporting Station
Broken Clouds Broken Clouds  
Wind Chill: 11°   Ceiling: 9000
Heat Index: 19°   Visibility: 10mi
Dew Point: 16°   Wind: 6mph
Humidity: 86%   Direction: 200°SSW
Pressure: 30.29"   Gusts: NA
Location:  41.6594°N, 85.0055°W
Report Text: KANQ 281455Z AUTO 20005KT 10SM SCT050 BKN090 M07/M09 A3029 RMK
Loading
Personal Weather Stations






























Interactive Weather Map New forecast layout! Learn more

10-Day Weather Forecast

Advertisements
Track Severe Weather on mobile